Louis Armstrong New Orleans International Airport New Orleans US
ICAO: KMSY
IATA: MSY
Category: Large
Scheduled Services: Yes

Elevation: 4 ft
TransAlt. 18000 ft.

Airport Communications:
NEW ORLEANS APP/DEP:123.85
ATIS:127.55
CLNC DEL:127.2
GND:121.9
TWR:119.5
UNICOM:122.95

KMSY Zoom In..

Runways:

(A) RW 01 length 7001 ft width 150 ft
ILS 111.70 / hdg 13

(B) RW 10 length 10104 ft width 150 ft
ILS 109.90 / hdg 103

(C) RW 19 length 7001 ft width 150 ft
LOC 111.70 / hdg 193

(D) RW 28 length 10104 ft width 150 ft
ILS 109.90 / hdg 283

Location; KMSY
Day. 19 / Time. 20.53 Zulu
* Altimeter: 29.90
* Temperature: 34° c. 93.2°f.
* Wind from: 300° Speed 06 kn.
Dewpoint: 26° c.
Visibility: 10 Statute Miles.
Clouds: Few 3500 ft.
Clouds: Scattered 25000 ft.
Conditions: Cumulonimbus.

KMSY 192053Z 30006KT 10SM FEW035 SCT250 34/26 A2990 RMK AO2 SLP127 CB DSNT NE-E T03390256 56018


Wind From 300°
Speed 06 kn.

 
 
jpsmedia.com for Web Design worldairports.se 2018   terms of use